Terminal Aerodrome Forecast
Issued by NWS Knoxville/Tri Cities, TN

Home | Current Version | Previous Version | Text Only | Print | Product List | Glossary On
Versions: 1 2 3 4 5 6 7 8 9 10 11 12 13 14 15 16 17 18 19 20 21 22 23 24 25 26
000
FTUS44 KMRX 301137
TAFTRI
TAF
KTRI 301137Z 3012/0112 20004KT P6SM VCSH SCT070 BKN100
     FM301500 24010KT P6SM SCT050 SCT100 BKN200
     FM302200 24012KT P6SM VCTS BKN045CB
     FM010300 24005KT P6SM SCT050 BKN150
     FM010800 VRB02KT 5SM BR SCT006 SCT100=

USA.gov is the U.S. government's official web portal to all federal, state and local government web resources and services.